Time;durP1;ratioP1;P1;durP2;ratioP2;P2;SDS_P1;SDS_P2;PMS_P1;PMS_P2;Temp;Humidity;BMP_temperature;BMP_pressure;BME280_temperature;BME280_humidity;BME280_pressure;Samples;Min_cycle;Max_cycle;Signal;HPM_P1;HPM_P2
2022/09/19 00:01:36;;;;;;;3.40;0.90;;;;;;;;;;4989077;28;20015;-82
2022/09/19 00:04:04;;;;;;;2.28;1.00;;;;;;;;;;4991257;28;20058;-83
2022/09/19 00:06:32;;;;;;;2.38;1.00;;;;;;;;;;4989139;28;20098;-84
2022/09/19 00:08:59;;;;;;;1.98;0.90;;;;;;;;;;5005862;28;20040;-84
2022/09/19 00:11:26;;;;;;;2.25;0.90;;;;;;;;;;5006151;28;20100;-83
2022/09/19 00:13:54;;;;;;;3.65;1.00;;;;;;;;;;5006704;28;20176;-82
2022/09/19 00:16:21;;;;;;;2.58;0.90;;;;;;;;;;5012342;28;20059;-82
2022/09/19 00:18:48;;;;;;;2.90;1.00;;;;;;;;;;5013258;28;20049;-81
2022/09/19 00:21:21;;;;;;;2.40;0.80;;;;;;;;;;5032088;28;20095;-83
2022/09/19 00:26:32;;;;;;;1.60;0.70;;;;;;;;;;5047264;28;20114;-82
2022/09/19 00:28:58;;;;;;;1.80;0.80;;;;;;;;;;5036624;28;20029;-84
2022/09/19 00:31:24;;;;;;;2.45;0.77;;;;;;;;;;5055508;28;20056;-84
2022/09/19 00:33:50;;;;;;;3.70;1.10;;;;;;;;;;5052465;28;20116;-84
2022/09/19 00:36:17;;;;;;;3.22;0.93;;;;;;;;;;5053797;28;20052;-82
2022/09/19 00:38:44;;;;;;;3.00;1.10;;;;;;;;;;5054133;28;20021;-82
2022/09/19 00:41:13;;;;;;;2.65;1.00;;;;;;;;;;5063084;28;20469;-82
2022/09/19 00:43:44;;;;;;;1.65;0.73;;;;;;;;;;5058258;28;20064;-81
2022/09/19 00:46:10;;;;;;;2.15;1.00;;;;;;;;;;5051055;28;20095;-83
2022/09/19 00:48:38;;;;;;;3.95;1.08;;;;;;;;;;5054765;28;20056;-83
2022/09/19 00:51:04;;;;;;;2.83;1.00;;;;;;;;;;5057338;28;20047;-86
2022/09/19 00:53:31;;;;;;;2.13;0.82;;;;;;;;;;5098363;28;20040;-84
2022/09/19 00:55:57;;;;;;;3.28;1.00;;;;;;;;;;5100972;28;20081;-82
2022/09/19 00:58:31;;;;;;;1.98;0.90;;;;;;;;;;5100760;28;20028;-83
2022/09/19 01:00:59;;;;;;;4.38;0.90;;;;;;;;;;5100273;28;20536;-82
2022/09/19 01:03:26;;;;;;;2.38;0.80;;;;;;;;;;5100955;28;20020;-81
2022/09/19 01:06:15;;;;;;;3.20;0.80;;;;;;;;;;5094848;28;20042;-82
2022/09/19 01:08:52;;;;;;;2.97;0.98;;;;;;;;;;5103089;28;20080;-82
2022/09/19 01:11:37;;;;;;;3.35;1.17;;;;;;;;;;5105736;28;20051;-85
2022/09/19 01:14:14;;;;;;;2.83;1.20;;;;;;;;;;5097750;28;20101;-82
2022/09/19 01:16:48;;;;;;;3.33;1.00;;;;;;;;;;5112157;28;20062;-83
2022/09/19 01:19:43;;;;;;;2.53;1.00;;;;;;;;;;5117163;28;20019;-85
2022/09/19 01:22:41;;;;;;;3.40;1.15;;;;;;;;;;5104970;28;20024;-84
2022/09/19 01:25:33;;;;;;;3.13;1.10;;;;;;;;;;5114763;28;20376;-83
2022/09/19 01:28:06;;;;;;;3.07;1.20;;;;;;;;;;5057042;28;20038;-83
2022/09/19 01:30:33;;;;;;;3.40;0.80;;;;;;;;;;5049044;28;20029;-83
2022/09/19 01:33:06;;;;;;;3.03;1.00;;;;;;;;;;5053454;28;20044;-83
2022/09/19 01:35:35;;;;;;;2.50;1.00;;;;;;;;;;5059822;28;20064;-84
2022/09/19 01:38:05;;;;;;;2.58;0.95;;;;;;;;;;5057676;28;20029;-81
2022/09/19 01:40:32;;;;;;;3.25;1.15;;;;;;;;;;5040810;28;20465;-83
2022/09/19 01:42:58;;;;;;;5.55;1.15;;;;;;;;;;5040119;28;20064;-83
2022/09/19 01:45:38;;;;;;;3.55;1.23;;;;;;;;;;5038387;28;20564;-84
2022/09/19 01:48:25;;;;;;;2.63;1.13;;;;;;;;;;5037967;28;20109;-83
2022/09/19 01:50:51;;;;;;;2.50;1.00;;;;;;;;;;5032968;28;20233;-83
2022/09/19 01:53:19;;;;;;;2.72;1.08;;;;;;;;;;5038478;28;20120;-83
2022/09/19 01:55:51;;;;;;;2.53;1.05;;;;;;;;;;5052219;28;20119;-82
2022/09/19 01:58:20;;;;;;;2.55;1.08;;;;;;;;;;5051878;28;20045;-83
2022/09/19 02:01:12;;;;;;;3.45;1.15;;;;;;;;;;5035471;28;20037;-81
2022/09/19 02:03:38;;;;;;;3.10;1.08;;;;;;;;;;5035174;28;20030;-84
2022/09/19 02:06:08;;;;;;;3.20;1.20;;;;;;;;;;5088144;28;20088;-84
2022/09/19 02:08:39;;;;;;;3.20;1.15;;;;;;;;;;5095254;28;20020;-82
2022/09/19 02:11:11;;;;;;;2.22;1.10;;;;;;;;;;5095415;28;20039;-85
2022/09/19 02:13:40;;;;;;;3.00;1.13;;;;;;;;;;5091204;28;20085;-83
2022/09/19 02:16:11;;;;;;;3.05;1.20;;;;;;;;;;5080595;28;20509;-81
2022/09/19 02:18:49;;;;;;;3.17;1.10;;;;;;;;;;5093394;28;20051;-81
2022/09/19 02:21:18;;;;;;;2.78;1.05;;;;;;;;;;5095139;28;20016;-81
2022/09/19 02:23:47;;;;;;;2.55;1.00;;;;;;;;;;5084649;28;20035;-81
2022/09/19 02:26:15;;;;;;;3.45;1.20;;;;;;;;;;5079388;28;20093;-80
2022/09/19 02:28:43;;;;;;;3.00;1.25;;;;;;;;;;5107435;28;20032;-82
2022/09/19 02:31:11;;;;;;;2.47;1.00;;;;;;;;;;5097846;28;20036;-82
2022/09/19 02:33:37;;;;;;;3.38;1.20;;;;;;;;;;5093446;28;20035;-82
2022/09/19 02:36:03;;;;;;;2.67;1.10;;;;;;;;;;5095152;28;20579;-81
2022/09/19 02:38:35;;;;;;;2.25;0.98;;;;;;;;;;5093876;28;20076;-82
2022/09/19 02:41:01;;;;;;;2.28;0.73;;;;;;;;;;5094129;28;20077;-82
2022/09/19 02:43:36;;;;;;;2.13;0.80;;;;;;;;;;5092910;28;20099;-82
2022/09/19 02:46:16;;;;;;;1.98;0.80;;;;;;;;;;5094373;28;20440;-82
2022/09/19 02:48:42;;;;;;;3.10;0.95;;;;;;;;;;5106166;28;20024;-82
2022/09/19 02:51:13;;;;;;;2.10;0.90;;;;;;;;;;5115187;28;20161;-82
2022/09/19 02:53:42;;;;;;;2.22;0.75;;;;;;;;;;5106028;28;20104;-84
2022/09/19 02:56:14;;;;;;;2.40;0.82;;;;;;;;;;5092381;28;20797;-81
2022/09/19 02:58:43;;;;;;;1.27;0.60;;;;;;;;;;5094136;28;20024;-81
2022/09/19 03:01:13;;;;;;;1.83;0.70;;;;;;;;;;5096451;28;20076;-83
2022/09/19 03:06:35;;;;;;;1.98;0.60;;;;;;;;;;5094652;28;20536;-82
2022/09/19 03:09:01;;;;;;;4.05;1.52;;;;;;;;;;5092958;28;20108;-82
2022/09/19 03:11:28;;;;;;;3.03;1.30;;;;;;;;;;5093761;28;20028;-81
2022/09/19 03:13:56;;;;;;;1.50;0.60;;;;;;;;;;5100536;28;20027;-82
2022/09/19 03:16:25;;;;;;;2.40;0.80;;;;;;;;;;5076583;28;20117;-83
2022/09/19 03:18:54;;;;;;;1.52;0.65;;;;;;;;;;5109401;28;20023;-82
2022/09/19 03:21:22;;;;;;;2.22;0.60;;;;;;;;;;5094569;28;20438;-82
2022/09/19 03:23:50;;;;;;;1.88;0.70;;;;;;;;;;5087854;28;20024;-81
2022/09/19 03:26:21;;;;;;;1.10;0.50;;;;;;;;;;5093355;28;20028;-82
2022/09/19 03:28:48;;;;;;;1.75;0.80;;;;;;;;;;5093412;28;20035;-81
2022/09/19 03:31:14;;;;;;;1.63;0.73;;;;;;;;;;5093467;28;20536;-84
2022/09/19 03:33:40;;;;;;;1.50;0.68;;;;;;;;;;5096501;28;20025;-81
2022/09/19 03:36:07;;;;;;;1.25;0.73;;;;;;;;;;5090979;28;20406;-81
2022/09/19 03:38:34;;;;;;;1.65;0.90;;;;;;;;;;5094397;28;20441;-81
2022/09/19 03:41:00;;;;;;;2.75;0.93;;;;;;;;;;5094647;28;20020;-80
2022/09/19 03:43:28;;;;;;;2.17;0.85;;;;;;;;;;5092646;28;20028;-80
2022/09/19 03:45:54;;;;;;;1.30;0.70;;;;;;;;;;5092926;28;20020;-82
2022/09/19 03:48:20;;;;;;;2.03;0.75;;;;;;;;;;5091951;28;20032;-85
2022/09/19 03:50:46;;;;;;;1.35;0.52;;;;;;;;;;5092212;28;20036;-82
2022/09/19 03:53:13;;;;;;;1.45;0.50;;;;;;;;;;5090696;28;20032;-82
2022/09/19 03:55:41;;;;;;;1.23;0.55;;;;;;;;;;5094527;28;20027;-84
2022/09/19 03:58:09;;;;;;;1.77;0.90;;;;;;;;;;5095136;28;20476;-80
2022/09/19 04:00:35;;;;;;;2.25;0.80;;;;;;;;;;5083059;28;20039;-82
2022/09/19 04:03:02;;;;;;;1.70;0.60;;;;;;;;;;5076068;28;20025;-82
2022/09/19 04:05:28;;;;;;;1.13;0.50;;;;;;;;;;5087474;28;20506;-84
2022/09/19 04:07:54;;;;;;;2.00;0.80;;;;;;;;;;5077836;28;20028;-82
2022/09/19 04:10:20;;;;;;;1.73;0.50;;;;;;;;;;5096725;28;20073;-82
2022/09/19 04:12:48;;;;;;;2.00;0.60;;;;;;;;;;5099166;28;20032;-82
2022/09/19 04:15:14;;;;;;;0.70;0.50;;;;;;;;;;5098608;28;20020;-83
2022/09/19 04:17:41;;;;;;;2.28;0.47;;;;;;;;;;5100515;28;20099;-82
2022/09/19 04:20:09;;;;;;;1.13;0.50;;;;;;;;;;5100535;28;20036;-82
2022/09/19 04:22:37;;;;;;;1.42;0.50;;;;;;;;;;5098483;28;20016;-82
2022/09/19 04:25:04;;;;;;;1.67;0.50;;;;;;;;;;5094944;28;20012;-82
2022/09/19 04:27:30;;;;;;;1.10;0.40;;;;;;;;;;5087736;28;20024;-82
2022/09/19 04:29:56;;;;;;;0.52;0.30;;;;;;;;;;5092656;28;20083;-83
2022/09/19 04:32:22;;;;;;;0.65;0.30;;;;;;;;;;5094716;28;20507;-83
2022/09/19 04:34:49;;;;;;;0.85;0.40;;;;;;;;;;5097498;28;20028;-82
2022/09/19 04:37:15;;;;;;;1.52;0.45;;;;;;;;;;5098002;28;20017;-83
2022/09/19 04:39:41;;;;;;;0.35;0.30;;;;;;;;;;5099351;28;20027;-83
2022/09/19 04:42:09;;;;;;;1.13;0.40;;;;;;;;;;5098437;28;20032;-82
2022/09/19 04:44:57;;;;;;;1.52;0.40;;;;;;;;;;5103027;28;20019;-82
2022/09/19 04:48:07;;;;;;;0.82;0.30;;;;;;;;;;5049475;28;20394;-84
2022/09/19 04:50:44;;;;;;;0.68;0.32;;;;;;;;;;5066833;28;20116;-83
2022/09/19 04:53:31;;;;;;;3.33;0.90;;;;;;;;;;5060939;28;20430;-82
2022/09/19 04:55:57;;;;;;;3.58;0.80;;;;;;;;;;5061128;28;20040;-82
2022/09/19 04:58:24;;;;;;;0.95;0.32;;;;;;;;;;5043510;28;20102;-82
2022/09/19 05:00:55;;;;;;;2.17;1.08;;;;;;;;;;5058958;28;20092;-82
2022/09/19 05:03:23;;;;;;;0.98;0.50;;;;;;;;;;5059548;28;20044;-81
2022/09/19 05:05:52;;;;;;;3.17;0.75;;;;;;;;;;5036317;28;20033;-84
2022/09/19 05:08:24;;;;;;;1.65;0.60;;;;;;;;;;5043183;28;20493;-83
2022/09/19 05:10:51;;;;;;;1.00;0.40;;;;;;;;;;5058421;28;20105;-83
2022/09/19 05:13:17;;;;;;;1.83;0.43;;;;;;;;;;5059491;28;20037;-83
2022/09/19 05:15:44;;;;;;;2.33;0.82;;;;;;;;;;5042032;28;20033;-83
2022/09/19 05:18:10;;;;;;;1.58;0.52;;;;;;;;;;5058712;28;20041;-83
2022/09/19 05:20:59;;;;;;;3.72;0.93;;;;;;;;;;5059432;28;20547;-82
2022/09/19 05:23:27;;;;;;;3.38;0.85;;;;;;;;;;5083166;28;20024;-81
2022/09/19 05:25:53;;;;;;;1.50;0.50;;;;;;;;;;5067201;28;20447;-82
2022/09/19 05:28:21;;;;;;;1.10;0.50;;;;;;;;;;5081167;28;20032;-82
2022/09/19 05:30:49;;;;;;;1.88;0.50;;;;;;;;;;5063542;28;20048;-83
2022/09/19 05:33:26;;;;;;;2.78;0.70;;;;;;;;;;5078999;28;20024;-81
2022/09/19 05:35:53;;;;;;;1.70;0.60;;;;;;;;;;5083455;28;20025;-82
2022/09/19 05:38:19;;;;;;;3.58;0.65;;;;;;;;;;5090234;28;20020;-80
2022/09/19 05:40:45;;;;;;;3.45;1.40;;;;;;;;;;5071937;28;20550;-82
2022/09/19 05:43:11;;;;;;;2.70;1.02;;;;;;;;;;5075033;28;20071;-82
2022/09/19 05:45:37;;;;;;;2.83;1.00;;;;;;;;;;5073367;28;20095;-82
2022/09/19 05:48:04;;;;;;;2.10;0.82;;;;;;;;;;5073719;28;20040;-82
2022/09/19 05:50:31;;;;;;;3.67;0.90;;;;;;;;;;5075978;28;20554;-81
2022/09/19 05:55:41;;;;;;;2.67;0.90;;;;;;;;;;5073008;28;20043;-81
2022/09/19 05:58:08;;;;;;;4.00;1.42;;;;;;;;;;5073312;28;20029;-82
2022/09/19 06:00:35;;;;;;;1.90;0.80;;;;;;;;;;5077423;28;20021;-82
2022/09/19 06:03:01;;;;;;;4.60;1.20;;;;;;;;;;5072168;28;20031;-84
2022/09/19 06:05:32;;;;;;;2.72;1.10;;;;;;;;;;5072738;28;20032;-82
2022/09/19 06:07:58;;;;;;;2.38;0.80;;;;;;;;;;5072111;28;20044;-83
2022/09/19 06:10:25;;;;;;;2.22;0.80;;;;;;;;;;5101065;28;20036;-83
2022/09/19 06:12:51;;;;;;;1.63;0.70;;;;;;;;;;5095615;28;20517;-84
2022/09/19 06:15:17;;;;;;;1.58;0.60;;;;;;;;;;5094071;28;20032;-82
2022/09/19 06:17:45;;;;;;;1.95;0.70;;;;;;;;;;5093221;28;20454;-83
2022/09/19 06:20:14;;;;;;;2.67;0.93;;;;;;;;;;5106135;28;20098;-83
2022/09/19 06:22:41;;;;;;;3.38;1.38;;;;;;;;;;5100425;28;20441;-83
2022/09/19 06:25:07;;;;;;;4.25;1.10;;;;;;;;;;5098888;28;20039;-83
2022/09/19 06:27:33;;;;;;;2.10;0.90;;;;;;;;;;5101002;28;20439;-82
2022/09/19 06:30:01;;;;;;;2.35;0.93;;;;;;;;;;5095925;28;20055;-83
2022/09/19 06:32:29;;;;;;;2.58;0.98;;;;;;;;;;5093670;28;20100;-85
2022/09/19 06:34:55;;;;;;;2.25;0.70;;;;;;;;;;5093736;28;20043;-83
2022/09/19 06:37:21;;;;;;;1.13;0.57;;;;;;;;;;5099311;28;20024;-82
2022/09/19 06:39:47;;;;;;;2.45;0.80;;;;;;;;;;5098458;28;20391;-81
2022/09/19 06:42:13;;;;;;;3.60;1.23;;;;;;;;;;5102084;28;20106;-82
2022/09/19 06:44:39;;;;;;;2.13;0.73;;;;;;;;;;5094722;28;20043;-83
2022/09/19 06:47:06;;;;;;;2.83;1.10;;;;;;;;;;5094146;28;20385;-82
2022/09/19 06:49:33;;;;;;;1.63;0.70;;;;;;;;;;5095112;28;20028;-83
2022/09/19 06:51:59;;;;;;;3.17;0.80;;;;;;;;;;5111670;28;20092;-83
2022/09/19 06:54:25;;;;;;;3.40;1.10;;;;;;;;;;5094648;28;20028;-82
2022/09/19 06:56:51;;;;;;;2.97;1.00;;;;;;;;;;5095708;28;20024;-84
2022/09/19 06:59:18;;;;;;;2.25;0.82;;;;;;;;;;5094595;28;20259;-83
2022/09/19 07:01:45;;;;;;;4.13;1.00;;;;;;;;;;5094090;28;20017;-83
2022/09/19 07:04:11;;;;;;;1.50;0.50;;;;;;;;;;5094031;28;20105;-84
2022/09/19 07:06:37;;;;;;;1.35;0.70;;;;;;;;;;5093849;28;20020;-85
2022/09/19 07:09:04;;;;;;;3.03;1.20;;;;;;;;;;5092948;28;20039;-82
2022/09/19 07:11:30;;;;;;;2.75;0.85;;;;;;;;;;5097965;28;20019;-83
2022/09/19 07:13:57;;;;;;;1.48;0.70;;;;;;;;;;5110911;28;20028;-83
2022/09/19 07:16:23;;;;;;;2.85;0.90;;;;;;;;;;5094416;28;20052;-84
2022/09/19 07:18:50;;;;;;;2.72;0.90;;;;;;;;;;5094462;28;20060;-86
2022/09/19 07:21:16;;;;;;;2.67;1.00;;;;;;;;;;5098823;28;20024;-83
2022/09/19 07:23:42;;;;;;;2.00;0.85;;;;;;;;;;5098605;28;20020;-85
2022/09/19 07:26:09;;;;;;;2.95;1.00;;;;;;;;;;5098133;28;20464;-83
2022/09/19 07:28:35;;;;;;;2.20;0.80;;;;;;;;;;5099450;28;20050;-85
2022/09/19 07:31:01;;;;;;;2.50;0.95;;;;;;;;;;5100245;28;20020;-86
2022/09/19 07:33:29;;;;;;;2.67;1.00;;;;;;;;;;5100207;28;20032;-86
2022/09/19 07:35:56;;;;;;;2.80;1.10;;;;;;;;;;5107901;28;20073;-85
2022/09/19 07:38:22;;;;;;;2.45;0.90;;;;;;;;;;5105378;28;20024;-85
2022/09/19 07:40:49;;;;;;;2.63;1.10;;;;;;;;;;5102646;28;20024;-86
2022/09/19 07:43:16;;;;;;;2.67;0.90;;;;;;;;;;5100807;28;20472;-85
2022/09/19 07:45:46;;;;;;;3.83;1.13;;;;;;;;;;5104104;28;20446;-84
2022/09/19 07:48:13;;;;;;;2.75;0.98;;;;;;;;;;5117299;28;20024;-84
2022/09/19 07:50:39;;;;;;;2.38;1.15;;;;;;;;;;5102359;28;20527;-82
2022/09/19 07:53:10;;;;;;;3.75;1.23;;;;;;;;;;5104367;28;20535;-83
2022/09/19 07:55:37;;;;;;;2.63;1.10;;;;;;;;;;5101467;28;20035;-85
2022/09/19 07:58:03;;;;;;;2.70;1.10;;;;;;;;;;5100258;28;20028;-83
2022/09/19 08:00:31;;;;;;;2.65;1.17;;;;;;;;;;5100377;28;20024;-85
2022/09/19 08:03:01;;;;;;;3.13;0.98;;;;;;;;;;5098213;28;20016;-85
2022/09/19 08:05:29;;;;;;;2.50;0.93;;;;;;;;;;5091713;28;20027;-85
2022/09/19 08:07:56;;;;;;;3.00;1.20;;;;;;;;;;5103191;28;20024;-85
2022/09/19 08:10:22;;;;;;;3.20;1.20;;;;;;;;;;5097320;28;20024;-85
2022/09/19 08:12:48;;;;;;;3.85;1.30;;;;;;;;;;5097138;28;20024;-83
2022/09/19 08:15:15;;;;;;;3.67;1.67;;;;;;;;;;5098049;28;20051;-84
2022/09/19 08:18:01;;;;;;;3.55;1.42;;;;;;;;;;5109709;28;20038;-85
2022/09/19 08:20:28;;;;;;;2.25;0.90;;;;;;;;;;5108784;28;20054;-84
2022/09/19 08:22:58;;;;;;;3.28;1.13;;;;;;;;;;5091776;28;20100;-85
2022/09/19 08:25:28;;;;;;;3.22;1.10;;;;;;;;;;5087909;28;20027;-86
2022/09/19 08:27:57;;;;;;;2.60;0.90;;;;;;;;;;5100055;28;20028;-86
2022/09/19 08:30:24;;;;;;;2.53;0.80;;;;;;;;;;5099636;28;20032;-85
2022/09/19 08:32:51;;;;;;;1.92;0.90;;;;;;;;;;5097236;28;20032;-85
2022/09/19 08:35:18;;;;;;;1.95;0.85;;;;;;;;;;5099201;28;20427;-87
2022/09/19 08:37:44;;;;;;;2.40;1.15;;;;;;;;;;5098416;28;20024;-86
2022/09/19 08:40:25;;;;;;;2.60;1.10;;;;;;;;;;5099233;28;20035;-86
2022/09/19 08:43:06;;;;;;;4.55;1.40;;;;;;;;;;5097203;28;20052;-85
2022/09/19 08:45:51;;;;;;;3.03;1.20;;;;;;;;;;5099776;28;20024;-86
2022/09/19 08:48:39;;;;;;;2.85;1.20;;;;;;;;;;5078603;28;20039;-85
2022/09/19 08:51:12;;;;;;;2.97;1.38;;;;;;;;;;5079450;28;20048;-85
2022/09/19 08:53:42;;;;;;;3.20;1.40;;;;;;;;;;5098601;28;20036;-85
2022/09/19 08:56:09;;;;;;;3.78;1.73;;;;;;;;;;5098560;28;20035;-85
2022/09/19 08:58:40;;;;;;;3.47;1.50;;;;;;;;;;5104368;28;20495;-86
2022/09/19 09:01:09;;;;;;;3.78;1.40;;;;;;;;;;5107949;28;20023;-86
2022/09/19 09:03:42;;;;;;;4.43;1.40;;;;;;;;;;5096891;28;20433;-85
2022/09/19 09:06:11;;;;;;;3.90;1.38;;;;;;;;;;5097692;28;20066;-84
2022/09/19 09:08:51;;;;;;;2.83;1.40;;;;;;;;;;5098564;28;20091;-84
2022/09/19 09:11:29;;;;;;;3.20;1.40;;;;;;;;;;5112587;28;20395;-84
2022/09/19 09:13:55;;;;;;;2.63;1.20;;;;;;;;;;5098339;28;20027;-86
2022/09/19 09:16:26;;;;;;;3.08;1.40;;;;;;;;;;5097073;28;20024;-85
2022/09/19 09:18:56;;;;;;;2.30;1.02;;;;;;;;;;5116510;28;20023;-84
2022/09/19 09:21:38;;;;;;;2.58;1.02;;;;;;;;;;5118586;28;20405;-83
2022/09/19 09:24:09;;;;;;;2.35;0.90;;;;;;;;;;5132959;27;20019;-85
2022/09/19 09:26:40;;;;;;;1.40;0.75;;;;;;;;;;5120478;28;20034;-84
2022/09/19 09:29:12;;;;;;;1.40;0.68;;;;;;;;;;5096576;28;20035;-84
2022/09/19 09:31:59;;;;;;;3.05;1.00;;;;;;;;;;5112724;28;20073;-83
2022/09/19 09:34:34;;;;;;;1.45;0.60;;;;;;;;;;5099445;28;20058;-83
2022/09/19 09:36:59;;;;;;;0.95;0.50;;;;;;;;;;5118429;28;20032;-84
2022/09/19 09:39:28;;;;;;;1.58;0.60;;;;;;;;;;5103752;28;20039;-83
2022/09/19 09:41:56;;;;;;;3.10;0.82;;;;;;;;;;5099186;28;20013;-85
2022/09/19 09:44:44;;;;;;;1.65;0.60;;;;;;;;;;5100773;28;20031;-82
2022/09/19 09:47:24;;;;;;;0.88;0.50;;;;;;;;;;5109398;28;20016;-86
2022/09/19 09:49:52;;;;;;;0.95;0.57;;;;;;;;;;5097942;28;20025;-82
2022/09/19 09:52:21;;;;;;;2.22;0.50;;;;;;;;;;5100326;28;20035;-82
2022/09/19 09:57:45;;;;;;;0.73;0.40;;;;;;;;;;5084276;28;20039;-84
2022/09/19 10:05:56;;;;;;;1.48;0.50;;;;;;;;;;5100871;28;20038;-84
2022/09/19 10:08:34;;;;;;;1.77;0.70;;;;;;;;;;5115354;27;20039;-83
2022/09/19 10:11:12;;;;;;;1.25;0.60;;;;;;;;;;5082256;28;20423;-84
2022/09/19 10:13:44;;;;;;;2.65;0.70;;;;;;;;;;5095670;28;20028;-84
2022/09/19 10:16:14;;;;;;;2.08;0.80;;;;;;;;;;5082748;28;20432;-83
2022/09/19 10:18:46;;;;;;;1.70;0.70;;;;;;;;;;5105762;28;20019;-84
2022/09/19 10:21:13;;;;;;;1.58;0.60;;;;;;;;;;5103739;28;20016;-84
2022/09/19 10:23:42;;;;;;;1.17;0.50;;;;;;;;;;5103844;28;20090;-84
2022/09/19 10:26:14;;;;;;;1.70;0.65;;;;;;;;;;5098072;28;20023;-82
2022/09/19 10:28:45;;;;;;;2.05;0.68;;;;;;;;;;5106303;28;20047;-84
2022/09/19 10:31:29;;;;;;;1.92;0.68;;;;;;;;;;5106038;28;20027;-84
2022/09/19 10:33:55;;;;;;;1.20;0.50;;;;;;;;;;5127608;28;20023;-83
2022/09/19 10:36:25;;;;;;;2.22;0.75;;;;;;;;;;5107488;28;20054;-82
2022/09/19 10:38:58;;;;;;;2.25;1.05;;;;;;;;;;5104901;28;20055;-83
2022/09/19 10:41:25;;;;;;;2.00;0.73;;;;;;;;;;5106797;28;20024;-84
2022/09/19 10:43:59;;;;;;;1.10;0.43;;;;;;;;;;5114019;28;20055;-83
2022/09/19 10:46:35;;;;;;;1.48;0.60;;;;;;;;;;5120847;28;20023;-85
2022/09/19 10:49:03;;;;;;;1.60;0.60;;;;;;;;;;5117295;28;20541;-83
2022/09/19 10:51:43;;;;;;;1.83;0.65;;;;;;;;;;5084582;28;20028;-83
2022/09/19 10:54:21;;;;;;;2.38;0.73;;;;;;;;;;5102577;28;20035;-83
2022/09/19 10:56:48;;;;;;;2.20;0.60;;;;;;;;;;5077235;28;20136;-84
2022/09/19 10:59:22;;;;;;;3.65;0.47;;;;;;;;;;5079173;28;20025;-84
2022/09/19 11:02:08;;;;;;;2.92;0.80;;;;;;;;;;5093050;28;20077;-85
2022/09/19 11:04:35;;;;;;;2.10;0.70;;;;;;;;;;5108145;28;20155;-85
2022/09/19 11:07:03;;;;;;;2.30;0.50;;;;;;;;;;5110270;28;20015;-83
2022/09/19 11:09:34;;;;;;;2.08;0.60;;;;;;;;;;5093817;28;20047;-83
2022/09/19 11:12:06;;;;;;;1.75;0.52;;;;;;;;;;5093987;28;20056;-83
2022/09/19 11:14:35;;;;;;;2.50;0.50;;;;;;;;;;5105967;28;20083;-85
2022/09/19 11:17:11;;;;;;;2.92;0.70;;;;;;;;;;5114521;28;20388;-84
2022/09/19 11:19:48;;;;;;;3.67;1.38;;;;;;;;;;5108179;28;20029;-85
2022/09/19 11:22:23;;;;;;;1.98;0.77;;;;;;;;;;5090094;28;20020;-84
2022/09/19 11:24:49;;;;;;;3.65;1.20;;;;;;;;;;5098106;28;20039;-86
2022/09/19 11:27:22;;;;;;;2.35;1.02;;;;;;;;;;5102408;28;20024;-85
2022/09/19 11:30:12;;;;;;;3.30;1.00;;;;;;;;;;5098379;28;20046;-85
2022/09/19 11:32:49;;;;;;;3.03;1.08;;;;;;;;;;5091559;28;20032;-85
2022/09/19 11:35:47;;;;;;;2.95;1.10;;;;;;;;;;5098037;28;20021;-85
2022/09/19 11:38:36;;;;;;;2.58;1.08;;;;;;;;;;5082260;28;20427;-85
2022/09/19 11:41:21;;;;;;;3.92;1.85;;;;;;;;;;5095720;28;20102;-86
2022/09/19 11:44:05;;;;;;;4.20;1.95;;;;;;;;;;5105479;28;20024;-86
2022/09/19 11:46:49;;;;;;;5.18;2.05;;;;;;;;;;5116162;28;20449;-84
2022/09/19 11:49:15;;;;;;;3.42;1.48;;;;;;;;;;5122409;28;20022;-85
2022/09/19 11:51:50;;;;;;;3.55;1.35;;;;;;;;;;5104042;28;20055;-86
2022/09/19 11:54:17;;;;;;;3.75;1.65;;;;;;;;;;5095329;28;20034;-86
2022/09/19 11:56:48;;;;;;;3.40;1.38;;;;;;;;;;5094625;28;20046;-85
2022/09/19 11:59:20;;;;;;;3.53;1.20;;;;;;;;;;5112269;28;20062;-85
2022/09/19 12:02:08;;;;;;;3.47;1.42;;;;;;;;;;5093733;28;20020;-87
2022/09/19 12:04:48;;;;;;;3.30;1.38;;;;;;;;;;5094840;28;20054;-87
2022/09/19 12:07:18;;;;;;;3.75;1.40;;;;;;;;;;5096873;28;20032;-86
2022/09/19 12:09:55;;;;;;;4.45;1.60;;;;;;;;;;5094904;28;20027;-85
2022/09/19 12:12:24;;;;;;;4.13;1.75;;;;;;;;;;5111077;28;20045;-86
2022/09/19 12:14:55;;;;;;;3.22;1.50;;;;;;;;;;5094786;28;20142;-86
2022/09/19 12:17:27;;;;;;;3.78;1.35;;;;;;;;;;5097880;28;20416;-86
2022/09/19 12:20:17;;;;;;;3.05;1.38;;;;;;;;;;5098035;28;20069;-86
2022/09/19 12:22:50;;;;;;;2.30;0.98;;;;;;;;;;5109921;28;20031;-86
2022/09/19 12:25:19;;;;;;;3.40;1.38;;;;;;;;;;5096814;28;20023;-83
2022/09/19 12:27:45;;;;;;;2.40;1.05;;;;;;;;;;5087841;28;20021;-85
2022/09/19 12:30:13;;;;;;;3.00;1.10;;;;;;;;;;5095793;28;20046;-85
2022/09/19 12:32:47;;;;;;;3.30;1.00;;;;;;;;;;5099049;28;20031;-85
2022/09/19 12:35:23;;;;;;;2.80;1.10;;;;;;;;;;5096924;28;20479;-86
2022/09/19 12:37:56;;;;;;;2.67;1.20;;;;;;;;;;5099913;28;20028;-85
2022/09/19 12:40:31;;;;;;;2.38;1.00;;;;;;;;;;5103770;28;20016;-84
2022/09/19 12:42:57;;;;;;;3.83;1.20;;;;;;;;;;5099179;28;20028;-86
2022/09/19 12:45:27;;;;;;;2.35;1.10;;;;;;;;;;5102057;28;20024;-83
2022/09/19 12:48:04;;;;;;;2.78;1.10;;;;;;;;;;5102837;28;20030;-84
2022/09/19 12:50:40;;;;;;;2.85;1.20;;;;;;;;;;5101190;28;20394;-83
2022/09/19 12:53:12;;;;;;;3.20;1.30;;;;;;;;;;5112757;28;20124;-85
2022/09/19 12:55:59;;;;;;;3.88;1.40;;;;;;;;;;5084504;28;20024;-82
2022/09/19 12:58:27;;;;;;;3.22;1.38;;;;;;;;;;5068415;28;20043;-84
2022/09/19 13:01:05;;;;;;;3.08;1.20;;;;;;;;;;5084907;28;20054;-84
2022/09/19 13:03:35;;;;;;;3.05;1.27;;;;;;;;;;5068620;28;20024;-85
2022/09/19 13:06:24;;;;;;;3.83;1.25;;;;;;;;;;5102537;28;20020;-84
2022/09/19 13:08:53;;;;;;;2.60;1.25;;;;;;;;;;5102253;28;20040;-86
2022/09/19 13:11:24;;;;;;;3.10;1.42;;;;;;;;;;5082448;28;20502;-85
2022/09/19 13:13:56;;;;;;;3.58;1.40;;;;;;;;;;5087199;28;20028;-84
2022/09/19 13:16:28;;;;;;;2.65;1.20;;;;;;;;;;5086792;28;20028;-86
2022/09/19 13:24:35;;;;;;;3.22;1.00;;;;;;;;;;5105421;28;20066;-83
2022/09/19 13:27:02;;;;;;;2.58;0.90;;;;;;;;;;5086654;28;20102;-84
2022/09/19 13:29:28;;;;;;;3.03;1.02;;;;;;;;;;5085453;28;20020;-87
2022/09/19 13:31:58;;;;;;;3.38;1.00;;;;;;;;;;5085381;28;20460;-84
2022/09/19 13:34:34;;;;;;;3.50;1.63;;;;;;;;;;5080820;28;20093;-85
2022/09/19 13:37:05;;;;;;;3.80;1.50;;;;;;;;;;5080077;28;20100;-86
2022/09/19 13:39:43;;;;;;;4.15;1.80;;;;;;;;;;5060604;28;20032;-85
2022/09/19 13:42:10;;;;;;;4.75;1.90;;;;;;;;;;5101717;28;20035;-85
2022/09/19 13:44:41;;;;;;;4.40;1.75;;;;;;;;;;5091235;28;20056;-85
2022/09/19 13:47:19;;;;;;;4.20;1.90;;;;;;;;;;5088001;28;20385;-86
2022/09/19 13:49:51;;;;;;;4.13;1.90;;;;;;;;;;5091260;28;20028;-85
2022/09/19 13:52:23;;;;;;;4.43;1.77;;;;;;;;;;5098689;28;20403;-85
2022/09/19 13:54:56;;;;;;;4.60;2.22;;;;;;;;;;5099239;28;20554;-85
2022/09/19 13:57:26;;;;;;;4.90;2.60;;;;;;;;;;5104126;28;20032;-86
2022/09/19 13:59:58;;;;;;;4.25;2.00;;;;;;;;;;5089071;28;20016;-88
2022/09/19 14:02:38;;;;;;;4.43;2.25;;;;;;;;;;5094653;28;20152;-84
2022/09/19 14:05:18;;;;;;;3.90;2.08;;;;;;;;;;5105409;28;20163;-86
2022/09/19 14:07:46;;;;;;;4.40;2.33;;;;;;;;;;5097007;28;20057;-87
2022/09/19 14:10:15;;;;;;;4.82;2.22;;;;;;;;;;5078782;28;20028;-88
2022/09/19 14:12:47;;;;;;;4.93;2.78;;;;;;;;;;5093151;28;20028;-85
2022/09/19 14:15:31;;;;;;;5.95;3.10;;;;;;;;;;5103980;28;20119;-84
2022/09/19 14:18:31;;;;;;;5.40;2.30;;;;;;;;;;5119142;28;20023;-86
2022/09/19 14:21:02;;;;;;;4.05;2.10;;;;;;;;;;5063292;28;20043;-85
2022/09/19 14:23:35;;;;;;;4.85;2.33;;;;;;;;;;5086172;28;20016;-85
2022/09/19 14:26:13;;;;;;;5.47;2.20;;;;;;;;;;5081816;28;20028;-86
2022/09/19 14:28:42;;;;;;;5.53;2.97;;;;;;;;;;5079088;28;20032;-86
2022/09/19 14:31:12;;;;;;;4.03;1.80;;;;;;;;;;5083591;28;20127;-86
2022/09/19 14:33:59;;;;;;;5.10;1.80;;;;;;;;;;5084656;28;20049;-86
2022/09/19 14:36:24;;;;;;;4.30;1.90;;;;;;;;;;5091358;28;20039;-87
2022/09/19 14:38:54;;;;;;;5.47;2.72;;;;;;;;;;5095101;28;20021;-86
2022/09/19 14:41:43;;;;;;;4.50;1.90;;;;;;;;;;5096117;28;20045;-86
2022/09/19 14:44:13;;;;;;;5.78;2.35;;;;;;;;;;5085854;28;20024;-86
2022/09/19 14:46:41;;;;;;;4.32;1.90;;;;;;;;;;5080450;28;20498;-84
2022/09/19 14:49:28;;;;;;;4.30;2.70;;;;;;;;;;5096412;28;20031;-86
2022/09/19 14:52:00;;;;;;;3.72;1.75;;;;;;;;;;5085257;28;20529;-83
2022/09/19 14:54:31;;;;;;;5.18;2.13;;;;;;;;;;5078771;28;20101;-85
2022/09/19 14:57:02;;;;;;;3.60;1.75;;;;;;;;;;5096666;28;20024;-84
2022/09/19 14:59:30;;;;;;;4.80;2.22;;;;;;;;;;5072192;28;20043;-84
2022/09/19 15:02:06;;;;;;;4.68;2.35;;;;;;;;;;5078570;28;20028;-86
2022/09/19 15:04:32;;;;;;;4.85;2.40;;;;;;;;;;5096473;28;20131;-86
2022/09/19 15:06:59;;;;;;;5.18;2.50;;;;;;;;;;5095959;28;20020;-83
2022/09/19 15:09:29;;;;;;;5.28;2.40;;;;;;;;;;5086488;28;20664;-86
2022/09/19 15:11:57;;;;;;;5.38;2.60;;;;;;;;;;5086323;28;20032;-86
2022/09/19 15:14:24;;;;;;;6.03;2.78;;;;;;;;;;5092068;28;20032;-85
2022/09/19 15:17:11;;;;;;;6.38;2.60;;;;;;;;;;5092661;28;20035;-85
2022/09/19 15:19:40;;;;;;;4.40;2.38;;;;;;;;;;5067145;28;20101;-85
2022/09/19 15:22:13;;;;;;;4.20;2.05;;;;;;;;;;5098521;28;20578;-86
2022/09/19 15:24:42;;;;;;;6.20;2.90;;;;;;;;;;5092206;28;20063;-86
2022/09/19 15:27:18;;;;;;;6.55;2.72;;;;;;;;;;5092880;28;20099;-86
2022/09/19 15:29:47;;;;;;;4.78;2.00;;;;;;;;;;5093912;28;20020;-85